sensor_id;sensor_type;location;lat;lon;timestamp;P1;durP1;ratioP1;P2;durP2;ratioP2
4140;SDS011;2084;51.05870200;6.92092300;2022-09-13T00:00:25;4.07;;;3.77;;
4140;SDS011;2084;51.05870200;6.92092300;2022-09-13T00:02:51;4.50;;;4.10;;
4140;SDS011;2084;51.05870200;6.92092300;2022-09-13T00:05:18;5.10;;;4.50;;
4140;SDS011;2084;51.05870200;6.92092300;2022-09-13T00:07:44;4.90;;;4.60;;
4140;SDS011;2084;51.05870200;6.92092300;2022-09-13T00:10:11;6.90;;;4.40;;
4140;SDS011;2084;51.05870200;6.92092300;2022-09-13T00:12:37;5.00;;;4.70;;
4140;SDS011;2084;51.05870200;6.92092300;2022-09-13T00:15:04;4.17;;;3.87;;
4140;SDS011;2084;51.05870200;6.92092300;2022-09-13T00:17:34;9.83;;;4.67;;
4140;SDS011;2084;51.05870200;6.92092300;2022-09-13T00:20:01;7.53;;;4.23;;
4140;SDS011;2084;51.05870200;6.92092300;2022-09-13T00:22:28;4.10;;;3.37;;
4140;SDS011;2084;51.05870200;6.92092300;2022-09-13T00:24:55;5.63;;;4.83;;
4140;SDS011;2084;51.05870200;6.92092300;2022-09-13T00:27:21;4.97;;;4.50;;
4140;SDS011;2084;51.05870200;6.92092300;2022-09-13T00:29:48;4.50;;;4.30;;
4140;SDS011;2084;51.05870200;6.92092300;2022-09-13T00:32:15;3.87;;;3.73;;
4140;SDS011;2084;51.05870200;6.92092300;2022-09-13T00:34:43;8.90;;;4.70;;
4140;SDS011;2084;51.05870200;6.92092300;2022-09-13T00:37:09;8.13;;;4.63;;
4140;SDS011;2084;51.05870200;6.92092300;2022-09-13T00:39:36;5.37;;;5.07;;
4140;SDS011;2084;51.05870200;6.92092300;2022-09-13T00:42:03;4.43;;;4.23;;
4140;SDS011;2084;51.05870200;6.92092300;2022-09-13T00:44:46;4.50;;;4.30;;
4140;SDS011;2084;51.05870200;6.92092300;2022-09-13T00:47:19;4.30;;;4.00;;
4140;SDS011;2084;51.05870200;6.92092300;2022-09-13T00:49:51;3.83;;;3.63;;
4140;SDS011;2084;51.05870200;6.92092300;2022-09-13T00:52:22;5.77;;;5.00;;
4140;SDS011;2084;51.05870200;6.92092300;2022-09-13T00:54:54;4.43;;;4.20;;
4140;SDS011;2084;51.05870200;6.92092300;2022-09-13T00:57:25;5.03;;;4.53;;
4140;SDS011;2084;51.05870200;6.92092300;2022-09-13T00:59:54;4.80;;;4.50;;
4140;SDS011;2084;51.05870200;6.92092300;2022-09-13T01:02:28;5.00;;;4.70;;
4140;SDS011;2084;51.05870200;6.92092300;2022-09-13T01:04:56;3.93;;;3.83;;
4140;SDS011;2084;51.05870200;6.92092300;2022-09-13T01:07:22;26.73;;;4.30;;
4140;SDS011;2084;51.05870200;6.92092300;2022-09-13T01:09:49;4.10;;;3.97;;
4140;SDS011;2084;51.05870200;6.92092300;2022-09-13T01:12:20;5.00;;;4.80;;
4140;SDS011;2084;51.05870200;6.92092300;2022-09-13T01:14:55;5.43;;;5.10;;
4140;SDS011;2084;51.05870200;6.92092300;2022-09-13T01:17:24;4.30;;;4.10;;
4140;SDS011;2084;51.05870200;6.92092300;2022-09-13T01:19:51;4.27;;;4.07;;
4140;SDS011;2084;51.05870200;6.92092300;2022-09-13T01:22:31;4.40;;;4.00;;
4140;SDS011;2084;51.05870200;6.92092300;2022-09-13T01:25:29;5.10;;;4.90;;
4140;SDS011;2084;51.05870200;6.92092300;2022-09-13T01:28:11;10.40;;;4.90;;
4140;SDS011;2084;51.05870200;6.92092300;2022-09-13T01:30:53;5.20;;;4.70;;
4140;SDS011;2084;51.05870200;6.92092300;2022-09-13T01:33:33;6.30;;;5.80;;
4140;SDS011;2084;51.05870200;6.92092300;2022-09-13T01:36:18;4.37;;;4.00;;
4140;SDS011;2084;51.05870200;6.92092300;2022-09-13T01:38:58;5.50;;;5.30;;
4140;SDS011;2084;51.05870200;6.92092300;2022-09-13T01:41:32;9.43;;;6.20;;
4140;SDS011;2084;51.05870200;6.92092300;2022-09-13T01:44:13;5.77;;;5.37;;
4140;SDS011;2084;51.05870200;6.92092300;2022-09-13T01:46:52;6.47;;;5.73;;
4140;SDS011;2084;51.05870200;6.92092300;2022-09-13T01:49:29;5.37;;;5.17;;
4140;SDS011;2084;51.05870200;6.92092300;2022-09-13T01:52:00;12.17;;;5.10;;
4140;SDS011;2084;51.05870200;6.92092300;2022-09-13T01:54:33;5.27;;;5.07;;
4140;SDS011;2084;51.05870200;6.92092300;2022-09-13T01:57:05;5.33;;;4.73;;
4140;SDS011;2084;51.05870200;6.92092300;2022-09-13T01:59:42;5.77;;;5.37;;
4140;SDS011;2084;51.05870200;6.92092300;2022-09-13T02:02:17;5.83;;;5.33;;
4140;SDS011;2084;51.05870200;6.92092300;2022-09-13T02:04:50;8.80;;;5.00;;
4140;SDS011;2084;51.05870200;6.92092300;2022-09-13T02:07:20;9.43;;;6.03;;
4140;SDS011;2084;51.05870200;6.92092300;2022-09-13T02:09:50;5.77;;;5.33;;
4140;SDS011;2084;51.05870200;6.92092300;2022-09-13T02:12:22;5.13;;;4.83;;
4140;SDS011;2084;51.05870200;6.92092300;2022-09-13T02:14:52;6.00;;;5.40;;
4140;SDS011;2084;51.05870200;6.92092300;2022-09-13T02:17:26;6.00;;;5.60;;
4140;SDS011;2084;51.05870200;6.92092300;2022-09-13T02:19:56;5.10;;;4.90;;
4140;SDS011;2084;51.05870200;6.92092300;2022-09-13T02:22:26;5.30;;;5.10;;
4140;SDS011;2084;51.05870200;6.92092300;2022-09-13T02:24:57;6.80;;;6.40;;
4140;SDS011;2084;51.05870200;6.92092300;2022-09-13T02:27:31;6.17;;;5.60;;
4140;SDS011;2084;51.05870200;6.92092300;2022-09-13T02:30:00;6.50;;;5.97;;
4140;SDS011;2084;51.05870200;6.92092300;2022-09-13T02:32:32;6.40;;;6.10;;
4140;SDS011;2084;51.05870200;6.92092300;2022-09-13T02:35:02;6.27;;;5.80;;
4140;SDS011;2084;51.05870200;6.92092300;2022-09-13T02:37:33;5.20;;;4.90;;
4140;SDS011;2084;51.05870200;6.92092300;2022-09-13T02:40:02;6.83;;;6.20;;
4140;SDS011;2084;51.05870200;6.92092300;2022-09-13T02:42:32;11.40;;;5.30;;
4140;SDS011;2084;51.05870200;6.92092300;2022-09-13T02:45:01;13.37;;;6.37;;
4140;SDS011;2084;51.05870200;6.92092300;2022-09-13T02:47:35;4.70;;;4.50;;
4140;SDS011;2084;51.05870200;6.92092300;2022-09-13T02:50:20;5.00;;;4.73;;
4140;SDS011;2084;51.05870200;6.92092300;2022-09-13T02:53:00;4.97;;;4.77;;
4140;SDS011;2084;51.05870200;6.92092300;2022-09-13T02:55:34;4.77;;;4.40;;
4140;SDS011;2084;51.05870200;6.92092300;2022-09-13T02:58:08;5.53;;;4.70;;
4140;SDS011;2084;51.05870200;6.92092300;2022-09-13T03:00:39;5.37;;;5.17;;
4140;SDS011;2084;51.05870200;6.92092300;2022-09-13T03:03:08;5.87;;;5.43;;
4140;SDS011;2084;51.05870200;6.92092300;2022-09-13T03:05:38;9.60;;;6.80;;
4140;SDS011;2084;51.05870200;6.92092300;2022-09-13T03:08:05;6.50;;;6.00;;
4140;SDS011;2084;51.05870200;6.92092300;2022-09-13T03:10:37;6.60;;;6.30;;
4140;SDS011;2084;51.05870200;6.92092300;2022-09-13T03:13:17;7.00;;;6.27;;
4140;SDS011;2084;51.05870200;6.92092300;2022-09-13T03:16:18;7.93;;;6.27;;
4140;SDS011;2084;51.05870200;6.92092300;2022-09-13T03:19:01;6.90;;;5.87;;
4140;SDS011;2084;51.05870200;6.92092300;2022-09-13T03:21:50;7.80;;;7.10;;
4140;SDS011;2084;51.05870200;6.92092300;2022-09-13T03:24:31;6.60;;;6.20;;
4140;SDS011;2084;51.05870200;6.92092300;2022-09-13T03:27:10;5.90;;;5.37;;
4140;SDS011;2084;51.05870200;6.92092300;2022-09-13T03:29:50;5.90;;;5.50;;
4140;SDS011;2084;51.05870200;6.92092300;2022-09-13T03:32:23;6.93;;;6.43;;
4140;SDS011;2084;51.05870200;6.92092300;2022-09-13T03:35:02;6.57;;;6.17;;
4140;SDS011;2084;51.05870200;6.92092300;2022-09-13T03:37:34;5.80;;;5.23;;
4140;SDS011;2084;51.05870200;6.92092300;2022-09-13T03:40:11;6.67;;;6.30;;
4140;SDS011;2084;51.05870200;6.92092300;2022-09-13T03:42:41;7.00;;;6.33;;
4140;SDS011;2084;51.05870200;6.92092300;2022-09-13T03:45:11;5.70;;;5.40;;
4140;SDS011;2084;51.05870200;6.92092300;2022-09-13T03:47:42;5.80;;;5.50;;
4140;SDS011;2084;51.05870200;6.92092300;2022-09-13T03:50:15;7.50;;;6.90;;
4140;SDS011;2084;51.05870200;6.92092300;2022-09-13T03:52:45;7.57;;;6.70;;
4140;SDS011;2084;51.05870200;6.92092300;2022-09-13T03:55:16;9.70;;;7.50;;
4140;SDS011;2084;51.05870200;6.92092300;2022-09-13T03:57:44;7.87;;;6.83;;
4140;SDS011;2084;51.05870200;6.92092300;2022-09-13T04:00:11;11.13;;;7.47;;
4140;SDS011;2084;51.05870200;6.92092300;2022-09-13T04:02:39;7.10;;;6.47;;
4140;SDS011;2084;51.05870200;6.92092300;2022-09-13T04:05:06;15.80;;;8.73;;
4140;SDS011;2084;51.05870200;6.92092300;2022-09-13T04:07:34;16.03;;;6.97;;
4140;SDS011;2084;51.05870200;6.92092300;2022-09-13T04:10:01;9.73;;;8.10;;
4140;SDS011;2084;51.05870200;6.92092300;2022-09-13T04:12:27;10.40;;;7.80;;
4140;SDS011;2084;51.05870200;6.92092300;2022-09-13T04:14:55;8.10;;;7.00;;
4140;SDS011;2084;51.05870200;6.92092300;2022-09-13T04:17:21;7.43;;;6.70;;
4140;SDS011;2084;51.05870200;6.92092300;2022-09-13T04:19:48;16.10;;;7.73;;
4140;SDS011;2084;51.05870200;6.92092300;2022-09-13T04:22:14;7.70;;;6.27;;
4140;SDS011;2084;51.05870200;6.92092300;2022-09-13T04:24:42;12.33;;;7.73;;
4140;SDS011;2084;51.05870200;6.92092300;2022-09-13T04:27:09;7.20;;;6.70;;
4140;SDS011;2084;51.05870200;6.92092300;2022-09-13T04:29:36;6.57;;;6.17;;
4140;SDS011;2084;51.05870200;6.92092300;2022-09-13T04:32:02;7.33;;;6.67;;
4140;SDS011;2084;51.05870200;6.92092300;2022-09-13T04:34:29;7.13;;;6.50;;
4140;SDS011;2084;51.05870200;6.92092300;2022-09-13T04:36:56;7.77;;;7.17;;
4140;SDS011;2084;51.05870200;6.92092300;2022-09-13T04:39:22;6.33;;;5.90;;
4140;SDS011;2084;51.05870200;6.92092300;2022-09-13T04:41:51;10.20;;;6.70;;
4140;SDS011;2084;51.05870200;6.92092300;2022-09-13T04:44:19;8.00;;;6.20;;
4140;SDS011;2084;51.05870200;6.92092300;2022-09-13T04:46:46;7.40;;;6.80;;
4140;SDS011;2084;51.05870200;6.92092300;2022-09-13T04:49:13;7.00;;;6.40;;
4140;SDS011;2084;51.05870200;6.92092300;2022-09-13T04:51:41;10.40;;;5.67;;
4140;SDS011;2084;51.05870200;6.92092300;2022-09-13T04:54:07;6.37;;;5.87;;
4140;SDS011;2084;51.05870200;6.92092300;2022-09-13T04:56:35;7.83;;;5.20;;
4140;SDS011;2084;51.05870200;6.92092300;2022-09-13T04:59:03;6.23;;;5.73;;
4140;SDS011;2084;51.05870200;6.92092300;2022-09-13T05:01:29;5.10;;;4.70;;
4140;SDS011;2084;51.05870200;6.92092300;2022-09-13T05:03:56;6.60;;;5.50;;
4140;SDS011;2084;51.05870200;6.92092300;2022-09-13T05:06:22;4.30;;;4.20;;
4140;SDS011;2084;51.05870200;6.92092300;2022-09-13T05:08:49;5.97;;;5.57;;
4140;SDS011;2084;51.05870200;6.92092300;2022-09-13T05:11:19;6.27;;;5.83;;
4140;SDS011;2084;51.05870200;6.92092300;2022-09-13T05:13:47;6.63;;;6.13;;
4140;SDS011;2084;51.05870200;6.92092300;2022-09-13T05:16:18;5.90;;;5.43;;
4140;SDS011;2084;51.05870200;6.92092300;2022-09-13T05:18:45;5.60;;;5.20;;
4140;SDS011;2084;51.05870200;6.92092300;2022-09-13T05:21:11;6.80;;;6.40;;
4140;SDS011;2084;51.05870200;6.92092300;2022-09-13T05:23:38;12.03;;;6.43;;
4140;SDS011;2084;51.05870200;6.92092300;2022-09-13T05:26:05;7.10;;;6.50;;
4140;SDS011;2084;51.05870200;6.92092300;2022-09-13T05:28:32;10.50;;;5.73;;
4140;SDS011;2084;51.05870200;6.92092300;2022-09-13T05:31:00;5.90;;;5.40;;
4140;SDS011;2084;51.05870200;6.92092300;2022-09-13T05:33:30;6.57;;;5.87;;
4140;SDS011;2084;51.05870200;6.92092300;2022-09-13T05:35:58;6.23;;;5.83;;
4140;SDS011;2084;51.05870200;6.92092300;2022-09-13T05:38:25;8.83;;;7.93;;
4140;SDS011;2084;51.05870200;6.92092300;2022-09-13T05:40:52;5.90;;;5.40;;
4140;SDS011;2084;51.05870200;6.92092300;2022-09-13T05:43:21;5.63;;;5.10;;
4140;SDS011;2084;51.05870200;6.92092300;2022-09-13T05:45:47;8.77;;;5.10;;
4140;SDS011;2084;51.05870200;6.92092300;2022-09-13T05:48:14;8.20;;;5.67;;
4140;SDS011;2084;51.05870200;6.92092300;2022-09-13T05:50:41;16.33;;;7.03;;
4140;SDS011;2084;51.05870200;6.92092300;2022-09-13T05:53:08;6.80;;;6.40;;
4140;SDS011;2084;51.05870200;6.92092300;2022-09-13T05:55:34;6.60;;;5.70;;
4140;SDS011;2084;51.05870200;6.92092300;2022-09-13T05:58:01;7.43;;;5.10;;
4140;SDS011;2084;51.05870200;6.92092300;2022-09-13T06:00:28;5.40;;;4.90;;
4140;SDS011;2084;51.05870200;6.92092300;2022-09-13T06:02:55;5.50;;;5.10;;
4140;SDS011;2084;51.05870200;6.92092300;2022-09-13T06:05:22;6.27;;;5.33;;
4140;SDS011;2084;51.05870200;6.92092300;2022-09-13T06:07:50;10.73;;;7.40;;
4140;SDS011;2084;51.05870200;6.92092300;2022-09-13T06:10:16;10.90;;;6.63;;
4140;SDS011;2084;51.05870200;6.92092300;2022-09-13T06:12:44;6.20;;;5.60;;
4140;SDS011;2084;51.05870200;6.92092300;2022-09-13T06:15:11;6.13;;;5.50;;
4140;SDS011;2084;51.05870200;6.92092300;2022-09-13T06:17:37;4.93;;;4.53;;
4140;SDS011;2084;51.05870200;6.92092300;2022-09-13T06:20:05;5.43;;;5.03;;
4140;SDS011;2084;51.05870200;6.92092300;2022-09-13T06:22:33;5.50;;;4.60;;
4140;SDS011;2084;51.05870200;6.92092300;2022-09-13T06:25:01;5.83;;;4.47;;
4140;SDS011;2084;51.05870200;6.92092300;2022-09-13T06:27:29;10.07;;;4.73;;
4140;SDS011;2084;51.05870200;6.92092300;2022-09-13T06:29:55;4.53;;;4.33;;
4140;SDS011;2084;51.05870200;6.92092300;2022-09-13T06:32:22;5.20;;;4.80;;
4140;SDS011;2084;51.05870200;6.92092300;2022-09-13T06:34:50;5.43;;;5.13;;
4140;SDS011;2084;51.05870200;6.92092300;2022-09-13T06:37:16;5.07;;;3.77;;
4140;SDS011;2084;51.05870200;6.92092300;2022-09-13T06:39:43;4.90;;;4.53;;
4140;SDS011;2084;51.05870200;6.92092300;2022-09-13T06:42:11;5.33;;;4.90;;
4140;SDS011;2084;51.05870200;6.92092300;2022-09-13T06:44:38;5.53;;;5.13;;
4140;SDS011;2084;51.05870200;6.92092300;2022-09-13T06:47:04;5.40;;;5.00;;
4140;SDS011;2084;51.05870200;6.92092300;2022-09-13T06:49:31;5.70;;;5.30;;
4140;SDS011;2084;51.05870200;6.92092300;2022-09-13T06:51:57;7.07;;;6.60;;
4140;SDS011;2084;51.05870200;6.92092300;2022-09-13T06:54:24;6.13;;;5.53;;
4140;SDS011;2084;51.05870200;6.92092300;2022-09-13T06:56:50;5.43;;;4.67;;
4140;SDS011;2084;51.05870200;6.92092300;2022-09-13T06:59:18;5.40;;;4.73;;
4140;SDS011;2084;51.05870200;6.92092300;2022-09-13T07:01:45;5.70;;;5.20;;
4140;SDS011;2084;51.05870200;6.92092300;2022-09-13T07:04:13;5.17;;;4.83;;
4140;SDS011;2084;51.05870200;6.92092300;2022-09-13T07:06:42;11.83;;;5.67;;
4140;SDS011;2084;51.05870200;6.92092300;2022-09-13T07:09:11;6.23;;;5.83;;
4140;SDS011;2084;51.05870200;6.92092300;2022-09-13T07:11:40;27.57;;;6.70;;
4140;SDS011;2084;51.05870200;6.92092300;2022-09-13T07:14:07;8.30;;;6.00;;
4140;SDS011;2084;51.05870200;6.92092300;2022-09-13T07:16:39;9.00;;;5.80;;
4140;SDS011;2084;51.05870200;6.92092300;2022-09-13T07:19:06;10.70;;;5.70;;
4140;SDS011;2084;51.05870200;6.92092300;2022-09-13T07:21:37;6.03;;;5.27;;
4140;SDS011;2084;51.05870200;6.92092300;2022-09-13T07:24:04;5.63;;;5.23;;
4140;SDS011;2084;51.05870200;6.92092300;2022-09-13T07:26:31;4.80;;;4.60;;
4140;SDS011;2084;51.05870200;6.92092300;2022-09-13T07:28:59;8.90;;;5.10;;
4140;SDS011;2084;51.05870200;6.92092300;2022-09-13T07:31:27;5.00;;;4.70;;
4140;SDS011;2084;51.05870200;6.92092300;2022-09-13T07:33:57;5.03;;;4.63;;
4140;SDS011;2084;51.05870200;6.92092300;2022-09-13T07:36:25;8.70;;;5.80;;
4140;SDS011;2084;51.05870200;6.92092300;2022-09-13T07:38:53;4.47;;;4.23;;
4140;SDS011;2084;51.05870200;6.92092300;2022-09-13T07:41:20;4.80;;;4.50;;
4140;SDS011;2084;51.05870200;6.92092300;2022-09-13T07:43:47;9.27;;;4.80;;
4140;SDS011;2084;51.05870200;6.92092300;2022-09-13T07:46:16;11.47;;;5.33;;
4140;SDS011;2084;51.05870200;6.92092300;2022-09-13T07:48:44;4.33;;;4.13;;
4140;SDS011;2084;51.05870200;6.92092300;2022-09-13T07:51:13;9.10;;;3.57;;
4140;SDS011;2084;51.05870200;6.92092300;2022-09-13T07:53:42;12.73;;;4.77;;
4140;SDS011;2084;51.05870200;6.92092300;2022-09-13T07:56:10;5.77;;;5.27;;
4140;SDS011;2084;51.05870200;6.92092300;2022-09-13T07:58:38;5.43;;;4.93;;
4140;SDS011;2084;51.05870200;6.92092300;2022-09-13T08:01:06;5.23;;;4.87;;
4140;SDS011;2084;51.05870200;6.92092300;2022-09-13T08:03:35;9.00;;;4.73;;
4140;SDS011;2084;51.05870200;6.92092300;2022-09-13T08:06:02;19.90;;;5.60;;
4140;SDS011;2084;51.05870200;6.92092300;2022-09-13T08:08:32;9.13;;;5.00;;
4140;SDS011;2084;51.05870200;6.92092300;2022-09-13T08:11:00;7.70;;;4.17;;
4140;SDS011;2084;51.05870200;6.92092300;2022-09-13T08:13:28;6.30;;;5.77;;
4140;SDS011;2084;51.05870200;6.92092300;2022-09-13T08:15:56;4.60;;;4.40;;
4140;SDS011;2084;51.05870200;6.92092300;2022-09-13T08:18:25;13.27;;;6.83;;
4140;SDS011;2084;51.05870200;6.92092300;2022-09-13T08:20:54;5.80;;;5.30;;
4140;SDS011;2084;51.05870200;6.92092300;2022-09-13T08:23:21;5.97;;;4.23;;
4140;SDS011;2084;51.05870200;6.92092300;2022-09-13T08:25:49;4.40;;;4.20;;
4140;SDS011;2084;51.05870200;6.92092300;2022-09-13T08:28:16;6.13;;;5.40;;
4140;SDS011;2084;51.05870200;6.92092300;2022-09-13T08:30:45;13.00;;;5.33;;
4140;SDS011;2084;51.05870200;6.92092300;2022-09-13T08:33:12;5.63;;;4.90;;
4140;SDS011;2084;51.05870200;6.92092300;2022-09-13T08:35:39;16.30;;;4.73;;
4140;SDS011;2084;51.05870200;6.92092300;2022-09-13T08:38:06;6.00;;;4.53;;
4140;SDS011;2084;51.05870200;6.92092300;2022-09-13T08:40:37;7.00;;;4.77;;
4140;SDS011;2084;51.05870200;6.92092300;2022-09-13T08:43:09;5.33;;;4.80;;
4140;SDS011;2084;51.05870200;6.92092300;2022-09-13T08:45:48;6.90;;;4.67;;
4140;SDS011;2084;51.05870200;6.92092300;2022-09-13T08:48:17;5.60;;;5.20;;
4140;SDS011;2084;51.05870200;6.92092300;2022-09-13T08:50:47;4.17;;;3.87;;
4140;SDS011;2084;51.05870200;6.92092300;2022-09-13T08:53:17;13.47;;;5.00;;
4140;SDS011;2084;51.05870200;6.92092300;2022-09-13T08:55:53;4.70;;;4.23;;
4140;SDS011;2084;51.05870200;6.92092300;2022-09-13T08:58:32;4.30;;;4.00;;
4140;SDS011;2084;51.05870200;6.92092300;2022-09-13T09:01:10;12.63;;;5.50;;
4140;SDS011;2084;51.05870200;6.92092300;2022-09-13T09:03:46;16.93;;;3.43;;
4140;SDS011;2084;51.05870200;6.92092300;2022-09-13T09:06:19;11.57;;;3.00;;
4140;SDS011;2084;51.05870200;6.92092300;2022-09-13T09:08:47;8.43;;;4.00;;
4140;SDS011;2084;51.05870200;6.92092300;2022-09-13T09:11:19;8.53;;;3.30;;
4140;SDS011;2084;51.05870200;6.92092300;2022-09-13T09:13:56;4.27;;;3.40;;
4140;SDS011;2084;51.05870200;6.92092300;2022-09-13T09:16:30;4.27;;;3.83;;
4140;SDS011;2084;51.05870200;6.92092300;2022-09-13T09:19:04;13.20;;;3.00;;
4140;SDS011;2084;51.05870200;6.92092300;2022-09-13T09:21:39;4.50;;;3.63;;
4140;SDS011;2084;51.05870200;6.92092300;2022-09-13T09:24:08;4.60;;;3.07;;
4140;SDS011;2084;51.05870200;6.92092300;2022-09-13T09:26:41;11.33;;;3.53;;
4140;SDS011;2084;51.05870200;6.92092300;2022-09-13T09:29:11;6.00;;;3.30;;
4140;SDS011;2084;51.05870200;6.92092300;2022-09-13T09:31:43;3.70;;;3.50;;
4140;SDS011;2084;51.05870200;6.92092300;2022-09-13T09:34:21;6.23;;;4.03;;
4140;SDS011;2084;51.05870200;6.92092300;2022-09-13T09:37:07;5.87;;;4.20;;
4140;SDS011;2084;51.05870200;6.92092300;2022-09-13T09:39:40;7.47;;;4.47;;
4140;SDS011;2084;51.05870200;6.92092300;2022-09-13T09:42:09;8.53;;;4.30;;
4140;SDS011;2084;51.05870200;6.92092300;2022-09-13T09:44:39;5.83;;;3.23;;
4140;SDS011;2084;51.05870200;6.92092300;2022-09-13T09:47:11;16.33;;;4.10;;
4140;SDS011;2084;51.05870200;6.92092300;2022-09-13T09:49:40;4.30;;;3.30;;
4140;SDS011;2084;51.05870200;6.92092300;2022-09-13T09:52:29;4.83;;;4.10;;
4140;SDS011;2084;51.05870200;6.92092300;2022-09-13T09:55:00;8.83;;;4.50;;
4140;SDS011;2084;51.05870200;6.92092300;2022-09-13T09:57:48;7.33;;;4.17;;
4140;SDS011;2084;51.05870200;6.92092300;2022-09-13T10:00:21;10.20;;;3.40;;
4140;SDS011;2084;51.05870200;6.92092300;2022-09-13T10:02:50;4.03;;;3.30;;
4140;SDS011;2084;51.05870200;6.92092300;2022-09-13T10:05:19;3.30;;;2.97;;
4140;SDS011;2084;51.05870200;6.92092300;2022-09-13T10:07:51;10.13;;;3.73;;
4140;SDS011;2084;51.05870200;6.92092300;2022-09-13T10:10:20;9.90;;;3.90;;
4140;SDS011;2084;51.05870200;6.92092300;2022-09-13T10:12:50;7.03;;;4.50;;
4140;SDS011;2084;51.05870200;6.92092300;2022-09-13T10:15:21;4.83;;;4.43;;
4140;SDS011;2084;51.05870200;6.92092300;2022-09-13T10:18:00;14.57;;;3.07;;
4140;SDS011;2084;51.05870200;6.92092300;2022-09-13T10:20:29;6.03;;;2.83;;
4140;SDS011;2084;51.05870200;6.92092300;2022-09-13T10:23:08;3.23;;;3.07;;
4140;SDS011;2084;51.05870200;6.92092300;2022-09-13T10:25:36;4.13;;;3.63;;
4140;SDS011;2084;51.05870200;6.92092300;2022-09-13T10:28:04;4.20;;;3.30;;
4140;SDS011;2084;51.05870200;6.92092300;2022-09-13T10:30:39;3.03;;;2.60;;
4140;SDS011;2084;51.05870200;6.92092300;2022-09-13T10:33:11;3.30;;;3.10;;
4140;SDS011;2084;51.05870200;6.92092300;2022-09-13T10:35:49;3.73;;;3.53;;
4140;SDS011;2084;51.05870200;6.92092300;2022-09-13T10:38:20;3.17;;;2.60;;
4140;SDS011;2084;51.05870200;6.92092300;2022-09-13T10:40:51;5.40;;;2.90;;
4140;SDS011;2084;51.05870200;6.92092300;2022-09-13T10:43:19;3.27;;;2.90;;
4140;SDS011;2084;51.05870200;6.92092300;2022-09-13T10:45:50;4.13;;;2.17;;
4140;SDS011;2084;51.05870200;6.92092300;2022-09-13T10:48:17;3.27;;;3.00;;
4140;SDS011;2084;51.05870200;6.92092300;2022-09-13T10:50:59;2.13;;;1.93;;
4140;SDS011;2084;51.05870200;6.92092300;2022-09-13T10:53:32;4.73;;;1.80;;
4140;SDS011;2084;51.05870200;6.92092300;2022-09-13T10:56:00;6.93;;;2.27;;
4140;SDS011;2084;51.05870200;6.92092300;2022-09-13T10:58:27;2.90;;;1.87;;
4140;SDS011;2084;51.05870200;6.92092300;2022-09-13T11:01:02;4.57;;;2.40;;
4140;SDS011;2084;51.05870200;6.92092300;2022-09-13T11:07:08;3.53;;;2.10;;
4140;SDS011;2084;51.05870200;6.92092300;2022-09-13T11:09:48;2.50;;;1.60;;
4140;SDS011;2084;51.05870200;6.92092300;2022-09-13T11:12:22;4.00;;;2.20;;
4140;SDS011;2084;51.05870200;6.92092300;2022-09-13T11:14:58;2.30;;;1.40;;
4140;SDS011;2084;51.05870200;6.92092300;2022-09-13T11:17:37;3.13;;;1.47;;
4140;SDS011;2084;51.05870200;6.92092300;2022-09-13T11:20:21;3.87;;;1.90;;
4140;SDS011;2084;51.05870200;6.92092300;2022-09-13T11:23:04;1.60;;;1.50;;
4140;SDS011;2084;51.05870200;6.92092300;2022-09-13T11:25:46;6.00;;;1.33;;
4140;SDS011;2084;51.05870200;6.92092300;2022-09-13T11:28:20;2.43;;;2.33;;
4140;SDS011;2084;51.05870200;6.92092300;2022-09-13T11:31:01;6.07;;;1.73;;
4140;SDS011;2084;51.05870200;6.92092300;2022-09-13T11:33:42;2.80;;;1.87;;
4140;SDS011;2084;51.05870200;6.92092300;2022-09-13T11:36:23;1.20;;;1.20;;
4140;SDS011;2084;51.05870200;6.92092300;2022-09-13T11:39:02;1.63;;;1.47;;
4140;SDS011;2084;51.05870200;6.92092300;2022-09-13T11:41:39;3.37;;;1.20;;
4140;SDS011;2084;51.05870200;6.92092300;2022-09-13T11:44:17;1.87;;;1.13;;
4140;SDS011;2084;51.05870200;6.92092300;2022-09-13T11:46:58;8.17;;;1.93;;
4140;SDS011;2084;51.05870200;6.92092300;2022-09-13T11:49:39;3.60;;;2.03;;
4140;SDS011;2084;51.05870200;6.92092300;2022-09-13T11:52:18;1.60;;;1.50;;
4140;SDS011;2084;51.05870200;6.92092300;2022-09-13T11:55:02;4.53;;;1.40;;
4140;SDS011;2084;51.05870200;6.92092300;2022-09-13T11:57:39;2.23;;;1.07;;
4140;SDS011;2084;51.05870200;6.92092300;2022-09-13T12:00:14;2.13;;;1.37;;
4140;SDS011;2084;51.05870200;6.92092300;2022-09-13T12:02:49;2.23;;;2.13;;
4140;SDS011;2084;51.05870200;6.92092300;2022-09-13T12:05:31;1.50;;;1.50;;
4140;SDS011;2084;51.05870200;6.92092300;2022-09-13T12:08:02;3.80;;;2.13;;
4140;SDS011;2084;51.05870200;6.92092300;2022-09-13T12:10:37;14.30;;;2.03;;
4140;SDS011;2084;51.05870200;6.92092300;2022-09-13T12:13:09;3.63;;;1.57;;
4140;SDS011;2084;51.05870200;6.92092300;2022-09-13T12:15:40;4.80;;;1.70;;
4140;SDS011;2084;51.05870200;6.92092300;2022-09-13T12:18:10;2.03;;;1.93;;
4140;SDS011;2084;51.05870200;6.92092300;2022-09-13T12:20:42;2.60;;;2.50;;
4140;SDS011;2084;51.05870200;6.92092300;2022-09-13T12:23:14;3.30;;;2.40;;
4140;SDS011;2084;51.05870200;6.92092300;2022-09-13T12:25:45;3.97;;;1.97;;
4140;SDS011;2084;51.05870200;6.92092300;2022-09-13T12:28:17;1.77;;;1.67;;
4140;SDS011;2084;51.05870200;6.92092300;2022-09-13T12:30:49;5.37;;;1.60;;
4140;SDS011;2084;51.05870200;6.92092300;2022-09-13T12:33:19;6.80;;;1.57;;
4140;SDS011;2084;51.05870200;6.92092300;2022-09-13T12:35:50;1.93;;;1.83;;
4140;SDS011;2084;51.05870200;6.92092300;2022-09-13T12:38:39;3.17;;;2.83;;
4140;SDS011;2084;51.05870200;6.92092300;2022-09-13T12:41:34;5.53;;;1.80;;
4140;SDS011;2084;51.05870200;6.92092300;2022-09-13T12:44:26;3.90;;;1.20;;
4140;SDS011;2084;51.05870200;6.92092300;2022-09-13T12:50:24;6.73;;;1.47;;
4140;SDS011;2084;51.05870200;6.92092300;2022-09-13T12:53:08;2.50;;;1.50;;
4140;SDS011;2084;51.05870200;6.92092300;2022-09-13T12:55:51;6.20;;;1.93;;
4140;SDS011;2084;51.05870200;6.92092300;2022-09-13T12:58:37;13.53;;;2.90;;
4140;SDS011;2084;51.05870200;6.92092300;2022-09-13T13:01:29;2.80;;;1.53;;
4140;SDS011;2084;51.05870200;6.92092300;2022-09-13T13:03:58;2.03;;;1.40;;
4140;SDS011;2084;51.05870200;6.92092300;2022-09-13T13:06:29;2.30;;;1.20;;
4140;SDS011;2084;51.05870200;6.92092300;2022-09-13T13:09:01;5.13;;;1.90;;
4140;SDS011;2084;51.05870200;6.92092300;2022-09-13T13:11:39;1.73;;;1.43;;
4140;SDS011;2084;51.05870200;6.92092300;2022-09-13T13:14:24;1.47;;;1.37;;
4140;SDS011;2084;51.05870200;6.92092300;2022-09-13T13:16:53;1.50;;;1.40;;
4140;SDS011;2084;51.05870200;6.92092300;2022-09-13T13:19:27;1.47;;;1.27;;
4140;SDS011;2084;51.05870200;6.92092300;2022-09-13T13:22:04;1.07;;;0.90;;
4140;SDS011;2084;51.05870200;6.92092300;2022-09-13T13:27:55;1.07;;;0.97;;
4140;SDS011;2084;51.05870200;6.92092300;2022-09-13T13:33:25;1.73;;;1.53;;
4140;SDS011;2084;51.05870200;6.92092300;2022-09-13T13:35:53;1.60;;;1.50;;
4140;SDS011;2084;51.05870200;6.92092300;2022-09-13T13:38:36;3.33;;;1.37;;
4140;SDS011;2084;51.05870200;6.92092300;2022-09-13T13:41:33;2.93;;;1.53;;
4140;SDS011;2084;51.05870200;6.92092300;2022-09-13T13:50:17;1.73;;;1.63;;
4140;SDS011;2084;51.05870200;6.92092300;2022-09-13T13:52:51;2.73;;;1.57;;